createdAt,value
2022-12-17T00:00:46.297Z,97877.13
2022-12-17T00:03:33.107Z,97884.28
2022-12-17T00:06:19.513Z,97879.97
2022-12-17T00:09:05.757Z,97884.78
2022-12-17T00:11:52.416Z,97889.25
2022-12-17T00:14:42.788Z,97897.28
2022-12-17T00:17:29.187Z,97892.47
2022-12-17T00:20:15.832Z,97906.59
2022-12-17T00:23:02.426Z,97898.75
2022-12-17T00:25:48.979Z,97899.63
2022-12-17T00:28:35.548Z,97910.28
2022-12-17T00:31:22.298Z,97903.03
2022-12-17T00:34:28.682Z,97909.84
2022-12-17T00:37:15.657Z,97916.25
2022-12-17T00:40:04.468Z,97921.78
2022-12-17T00:42:50.576Z,97912.19
2022-12-17T00:45:37.213Z,97919.88
2022-12-17T00:48:23.722Z,97920.78
2022-12-17T00:51:10.364Z,97929.22
2022-12-17T00:53:57.130Z,97935.53
2022-12-17T00:56:44.708Z,97930.13
2022-12-17T00:59:32.207Z,97925.78
2022-12-17T01:02:19.707Z,97929.22
2022-12-17T01:05:06.381Z,97939.00
2022-12-17T01:07:52.978Z,97936.56
2022-12-17T01:10:42.938Z,97934.25
2022-12-17T01:13:34.086Z,97942.75
2022-12-17T01:16:26.632Z,97938.88
2022-12-17T01:19:13.598Z,97948.16
2022-12-17T01:22:00.610Z,97945.94
2022-12-17T01:24:47.077Z,97945.63
2022-12-17T01:27:33.782Z,97949.84
2022-12-17T01:30:20.757Z,97949.91
2022-12-17T01:33:07.346Z,97958.75
2022-12-17T01:35:53.854Z,97944.56
2022-12-17T01:38:40.494Z,97962.47
2022-12-17T01:41:33.266Z,97963.28
2022-12-17T01:45:14.795Z,97970.97
2022-12-17T01:48:23.677Z,97971.69
2022-12-17T01:51:14.703Z,97975.28
2022-12-17T01:54:12.541Z,97979.72
2022-12-17T01:57:02.346Z,97971.56
2022-12-17T02:00:14.738Z,97986.47
2022-12-17T02:03:02.674Z,97991.69
2022-12-17T02:06:34.908Z,97995.94
2022-12-17T02:10:13.861Z,98001.44
2022-12-17T02:13:09.590Z,97994.09
2022-12-17T02:16:26.021Z,97995.16
2022-12-17T02:19:47.434Z,97996.78
2022-12-17T02:23:00.832Z,98001.22
2022-12-17T02:26:13.056Z,98005.75
2022-12-17T02:29:05.421Z,97998.63
2022-12-17T02:31:57.099Z,98004.75
2022-12-17T02:34:44.019Z,98005.69
2022-12-17T02:37:30.578Z,98008.59
2022-12-17T02:40:17.733Z,98023.84
2022-12-17T02:43:07.019Z,98026.84
2022-12-17T02:45:56.538Z,98029.28
2022-12-17T02:48:43.327Z,98029.28
2022-12-17T02:51:30.651Z,98035.03
2022-12-17T02:54:22.585Z,98041.16
2022-12-17T02:57:09.444Z,98038.72
2022-12-17T02:59:55.826Z,98045.13
2022-12-17T03:02:43.466Z,98036.22
2022-12-17T03:05:46.081Z,98048.38
2022-12-17T03:08:32.798Z,98051.72
2022-12-17T03:11:19.502Z,98056.13
2022-12-17T03:14:05.907Z,98056.16
2022-12-17T03:16:52.226Z,98060.69
2022-12-17T03:19:38.825Z,98054.22
2022-12-17T03:22:25.455Z,98059.97
2022-12-17T03:25:11.867Z,98062.53
2022-12-17T03:27:58.286Z,98055.22
2022-12-17T03:30:48.888Z,98054.84
2022-12-17T03:33:36.226Z,98052.81
2022-12-17T03:36:22.893Z,98059.66
2022-12-17T03:39:09.412Z,98064.03
2022-12-17T03:41:55.499Z,98066.88
2022-12-17T03:44:41.792Z,98072.66
2022-12-17T03:47:28.418Z,98070.66
2022-12-17T03:50:14.872Z,98069.13
2022-12-17T03:53:01.555Z,98075.91
2022-12-17T03:55:48.164Z,98074.88
2022-12-17T03:58:34.148Z,98076.13
2022-12-17T04:01:20.682Z,98079.22
2022-12-17T04:04:07.349Z,98081.50
2022-12-17T04:07:01.654Z,98081.94
2022-12-17T04:09:47.884Z,98084.19
2022-12-17T04:12:34.498Z,98097.03
2022-12-17T04:15:20.732Z,98091.25
2022-12-17T04:18:07.408Z,98096.78
2022-12-17T04:20:53.989Z,98101.88
2022-12-17T04:23:40.606Z,98108.53
2022-12-17T04:26:28.289Z,98111.00
2022-12-17T04:29:34.700Z,98105.63
2022-12-17T04:32:21.143Z,98112.72
2022-12-17T04:35:07.446Z,98117.00
2022-12-17T04:37:53.940Z,98110.16
2022-12-17T04:40:40.469Z,98113.69
2022-12-17T04:43:30.532Z,98124.22
2022-12-17T04:46:17.414Z,98118.31
2022-12-17T04:49:03.875Z,98120.25
2022-12-17T04:51:50.433Z,98125.78
2022-12-17T04:54:36.688Z,98132.63
2022-12-17T04:57:23.343Z,98128.22
2022-12-17T05:00:09.417Z,98121.00
2022-12-17T05:02:56.151Z,98139.00
2022-12-17T05:05:42.679Z,98137.97
2022-12-17T05:08:29.289Z,98136.91
2022-12-17T05:11:24.940Z,98142.81
2022-12-17T05:14:11.586Z,98147.97
2022-12-17T05:16:57.958Z,98152.38
2022-12-17T05:19:44.482Z,98161.13
2022-12-17T05:22:31.034Z,98167.03
2022-12-17T05:25:17.233Z,98162.66
2022-12-17T05:28:05.845Z,98157.44
2022-12-17T05:30:52.633Z,98165.19
2022-12-17T05:33:39.174Z,98158.19
2022-12-17T05:36:26.259Z,98171.19
2022-12-17T05:39:12.925Z,98159.28
2022-12-17T05:41:59.513Z,98163.66
2022-12-17T05:44:45.955Z,98166.97
2022-12-17T05:47:32.300Z,98171.38
2022-12-17T05:50:18.751Z,98176.75
2022-12-17T05:53:05.301Z,98180.19
2022-12-17T05:55:51.528Z,98185.34
2022-12-17T05:58:37.964Z,98186.13
2022-12-17T06:01:24.980Z,98179.97
2022-12-17T06:04:11.652Z,98189.56
2022-12-17T06:06:58.244Z,98186.88
2022-12-17T06:09:44.861Z,98190.25
2022-12-17T06:12:30.910Z,98197.97
2022-12-17T06:15:17.522Z,98196.03
2022-12-17T06:18:16.902Z,98199.66
2022-12-17T06:21:04.703Z,98201.22
2022-12-17T06:23:51.071Z,98201.34
2022-12-17T06:26:38.961Z,98196.25
2022-12-17T06:29:25.687Z,98198.03
2022-12-17T06:32:12.166Z,98210.28
2022-12-17T06:34:58.463Z,98207.47
2022-12-17T06:37:45.157Z,98213.72
2022-12-17T06:40:31.703Z,98219.03
2022-12-17T06:43:17.801Z,98224.34
2022-12-17T06:46:04.383Z,98231.41
2022-12-17T06:48:50.997Z,98226.47
2022-12-17T06:51:37.706Z,98231.00
2022-12-17T06:54:24.278Z,98228.50
2022-12-17T06:57:10.702Z,98224.09
2022-12-17T06:59:57.491Z,98222.34
2022-12-17T07:02:43.774Z,98225.78
2022-12-17T07:05:30.014Z,98235.56
2022-12-17T07:08:18.548Z,98247.25
2022-12-17T07:11:05.249Z,98251.69
2022-12-17T07:13:51.686Z,98250.91
2022-12-17T07:16:38.302Z,98260.91
2022-12-17T07:19:27.392Z,98260.19
2022-12-17T07:22:15.595Z,98259.50
2022-12-17T07:25:02.071Z,98269.25
2022-12-17T07:27:48.650Z,98272.09
2022-12-17T07:30:35.265Z,98272.97
2022-12-17T07:33:25.016Z,98276.53
2022-12-17T07:36:12.116Z,98281.47
2022-12-17T07:38:58.958Z,98284.06
2022-12-17T07:41:45.619Z,98285.91
2022-12-17T07:44:32.252Z,98290.22
2022-12-17T07:47:18.956Z,98308.31
2022-12-17T07:50:05.550Z,98307.13
2022-12-17T07:52:52.127Z,98314.78
2022-12-17T07:55:38.781Z,98309.63
2022-12-17T07:58:28.963Z,98312.22
2022-12-17T08:01:19.770Z,98320.06
2022-12-17T08:04:06.427Z,98317.09
2022-12-17T08:06:58.353Z,98328.03
2022-12-17T08:09:46.917Z,98325.06
2022-12-17T08:12:33.597Z,98335.31
2022-12-17T08:15:20.123Z,98342.09
2022-12-17T08:18:06.718Z,98347.84
2022-12-17T08:20:53.460Z,98352.88
2022-12-17T08:23:40.049Z,98358.88
2022-12-17T08:26:26.492Z,98353.56
2022-12-17T08:29:12.842Z,98358.59
2022-12-17T08:31:58.985Z,98372.38
2022-12-17T08:34:45.351Z,98363.81
2022-12-17T08:37:31.813Z,98376.06
2022-12-17T08:40:18.269Z,98381.19
2022-12-17T08:43:04.531Z,98381.97
2022-12-17T08:45:51.463Z,98390.75
2022-12-17T08:48:38.201Z,98393.00
2022-12-17T08:51:24.795Z,98393.00
2022-12-17T08:54:11.220Z,98392.19
2022-12-17T08:56:57.463Z,98398.47
2022-12-17T08:59:43.782Z,98395.09
2022-12-17T09:02:30.506Z,98401.81
2022-12-17T09:05:17.018Z,98400.03
2022-12-17T09:08:07.425Z,98410.47
2022-12-17T09:10:54.023Z,98412.03
2022-12-17T09:13:40.330Z,98415.41
2022-12-17T09:16:26.826Z,98409.19
2022-12-17T09:19:13.518Z,98404.81
2022-12-17T09:22:00.037Z,98400.28
2022-12-17T09:24:46.645Z,98415.19
2022-12-17T09:27:33.403Z,98417.19
2022-12-17T09:30:19.787Z,98415.41
2022-12-17T09:33:06.305Z,98420.59
2022-12-17T09:35:52.932Z,98425.81
2022-12-17T09:38:39.421Z,98420.22
2022-12-17T09:42:50.964Z,98428.06
2022-12-17T09:45:54.975Z,98429.56
2022-12-17T09:49:19.961Z,98431.41
2022-12-17T09:52:06.483Z,98428.25
2022-12-17T09:55:01.560Z,98429.03
2022-12-17T09:57:53.763Z,98427.94
2022-12-17T10:00:41.849Z,98432.03
2022-12-17T10:03:42.620Z,98424.13
2022-12-17T10:06:37.720Z,98424.66
2022-12-17T10:09:35.450Z,98424.81
2022-12-17T10:12:48.128Z,98417.19
2022-12-17T10:15:34.987Z,98428.06
2022-12-17T10:18:29.389Z,98419.16
2022-12-17T10:21:27.126Z,98432.22
2022-12-17T10:24:29.222Z,98427.91
2022-12-17T10:27:15.801Z,98430.16
2022-12-17T10:30:03.325Z,98428.16
2022-12-17T10:32:49.716Z,98426.00
2022-12-17T10:35:43.088Z,98427.59
2022-12-17T10:38:49.968Z,98422.31
2022-12-17T10:41:53.591Z,98420.38
2022-12-17T10:44:45.760Z,98428.75
2022-12-17T10:47:41.929Z,98424.28
2022-12-17T10:50:38.083Z,98418.97
2022-12-17T10:53:42.181Z,98433.09
2022-12-17T10:56:44.258Z,98426.00
2022-12-17T10:59:55.086Z,98419.75
2022-12-17T11:02:48.290Z,98420.69
2022-12-17T11:05:49.301Z,98431.38
2022-12-17T11:08:36.829Z,98432.00
2022-12-17T11:11:29.524Z,98432.91
2022-12-17T11:14:26.855Z,98433.22
2022-12-17T11:17:16.815Z,98434.88
2022-12-17T11:20:33.313Z,98437.78
2022-12-17T11:23:20.985Z,98439.94
2022-12-17T11:26:43.765Z,98441.16
2022-12-17T11:29:32.501Z,98441.47
2022-12-17T11:32:27.595Z,98440.50
2022-12-17T11:35:25.829Z,98449.25
2022-12-17T11:38:31.464Z,98443.72
2022-12-17T11:41:34.215Z,98443.56
2022-12-17T11:44:35.553Z,98442.41
2022-12-17T11:47:40.806Z,98439.59
2022-12-17T11:51:17.668Z,98436.06
2022-12-17T11:54:36.229Z,98430.59
2022-12-17T11:57:56.505Z,98435.81
2022-12-17T12:00:43.637Z,98444.16
2022-12-17T12:04:22.212Z,98439.75
2022-12-17T12:07:45.360Z,98434.06
2022-12-17T12:10:53.688Z,98440.31
2022-12-17T12:14:06.604Z,98433.50
2022-12-17T12:17:25.689Z,98437.06
2022-12-17T12:20:12.106Z,98436.31
2022-12-17T12:23:32.154Z,98434.38
2022-12-17T12:26:46.204Z,98449.16
2022-12-17T12:30:34.323Z,98442.94
2022-12-17T12:34:10.789Z,98433.69
2022-12-17T12:36:59.669Z,98452.25
2022-12-17T12:39:55.857Z,98443.44
2022-12-17T12:43:03.904Z,98435.63
2022-12-17T12:46:23.017Z,98441.75
2022-12-17T12:49:47.356Z,98434.88
2022-12-17T12:52:42.522Z,98435.31
2022-12-17T12:55:29.873Z,98435.75
2022-12-17T12:58:47.106Z,98446.31
2022-12-17T13:01:33.896Z,98445.91
2022-12-17T13:04:35.304Z,98447.28
2022-12-17T13:07:04.227Z,98444.47
2022-12-17T13:09:52.597Z,98448.09
2022-12-17T13:12:31.805Z,98441.66
2022-12-17T13:14:59.468Z,98439.81
2022-12-17T13:17:38.892Z,98433.59
2022-12-17T13:20:26.257Z,98436.78
2022-12-17T13:23:18.237Z,98429.97
2022-12-17T13:25:46.431Z,98431.69
2022-12-17T13:28:29.392Z,98433.81
2022-12-17T13:31:14.209Z,98435.91
2022-12-17T13:33:58.999Z,98426.44
2022-12-17T13:36:48.759Z,98428.53
2022-12-17T13:39:40.540Z,98428.03
2022-12-17T13:42:34.987Z,98423.28
2022-12-17T13:45:03.688Z,98427.34
2022-12-17T13:47:35.304Z,98429.97
2022-12-17T13:50:38.097Z,98431.91
2022-12-17T13:53:15.432Z,98431.06
2022-12-17T13:55:53.850Z,98432.94
2022-12-17T13:58:34.118Z,98434.78
2022-12-17T14:01:11.629Z,98448.91
2022-12-17T14:04:05.405Z,98447.06
2022-12-17T14:06:37.312Z,98460.31
2022-12-17T14:09:06.361Z,98453.56
2022-12-17T14:11:56.354Z,98449.34
2022-12-17T14:14:50.295Z,98454.09
2022-12-17T14:17:28.394Z,98461.06
2022-12-17T14:20:13.128Z,98470.78
2022-12-17T14:22:51.377Z,98463.84
2022-12-17T14:25:40.966Z,98476.50
2022-12-17T14:28:36.508Z,98478.44
2022-12-17T14:31:29.057Z,98477.75
2022-12-17T14:34:11.910Z,98470.75
2022-12-17T14:36:42.595Z,98470.56
2022-12-17T14:39:33.416Z,98472.88
2022-12-17T14:42:37.165Z,98475.06
2022-12-17T14:45:24.901Z,98473.44
2022-12-17T14:47:57.222Z,98472.44
2022-12-17T14:50:36.661Z,98472.91
2022-12-17T14:53:27.745Z,98476.78
2022-12-17T14:55:59.405Z,98471.75
2022-12-17T14:58:27.837Z,98464.13
2022-12-17T15:01:14.673Z,98468.91
2022-12-17T15:03:46.610Z,98470.66
2022-12-17T15:06:19.134Z,98469.28
2022-12-17T15:08:50.261Z,98473.00
2022-12-17T15:11:22.064Z,98477.59
2022-12-17T15:13:54.625Z,98474.34
2022-12-17T15:16:24.426Z,98472.81
2022-12-17T15:18:52.269Z,98486.06
2022-12-17T15:21:20.598Z,98481.09
2022-12-17T15:23:49.082Z,98477.00
2022-12-17T15:26:17.459Z,98480.69
2022-12-17T15:28:45.855Z,98484.38
2022-12-17T15:31:17.720Z,98478.44
2022-12-17T15:33:47.766Z,98490.03
2022-12-17T15:36:15.536Z,98488.44
2022-12-17T15:38:43.321Z,98486.88
2022-12-17T15:41:29.760Z,98488.84
2022-12-17T15:43:57.538Z,98499.41
2022-12-17T15:46:25.451Z,98493.47
2022-12-17T15:48:53.217Z,98499.47
2022-12-17T15:51:21.321Z,98494.31
2022-12-17T15:53:50.302Z,98495.16
2022-12-17T15:56:25.673Z,98490.91
2022-12-17T15:58:56.745Z,98502.38
2022-12-17T16:01:25.243Z,98502.50
2022-12-17T16:03:53.330Z,98504.28
2022-12-17T16:06:21.199Z,98505.25
2022-12-17T16:08:49.079Z,98517.66
2022-12-17T16:11:16.922Z,98517.91
2022-12-17T16:13:44.838Z,98515.56
2022-12-17T16:16:12.657Z,98520.34
2022-12-17T16:18:40.806Z,98521.75
2022-12-17T16:21:09.850Z,98516.91
2022-12-17T16:23:38.070Z,98519.88
2022-12-17T16:26:08.283Z,98522.69
2022-12-17T16:28:36.940Z,98521.91
2022-12-17T16:31:09.254Z,98516.78
2022-12-17T16:33:40.378Z,98511.56
2022-12-17T16:36:13.305Z,98509.13
2022-12-17T16:38:51.004Z,98511.06
2022-12-17T16:41:21.339Z,98507.59
2022-12-17T16:43:49.280Z,98509.44
2022-12-17T16:46:40.124Z,98503.75
2022-12-17T16:49:20.390Z,98508.09
2022-12-17T16:51:51.450Z,98516.75
2022-12-17T16:54:23.204Z,98515.88
2022-12-17T16:56:51.948Z,98515.00
2022-12-17T16:59:20.041Z,98513.44
2022-12-17T17:01:50.957Z,98510.03
2022-12-17T17:04:22.633Z,98524.00
2022-12-17T17:06:56.743Z,98511.84
2022-12-17T17:09:25.807Z,98524.03
2022-12-17T17:11:58.751Z,98520.59
2022-12-17T17:14:27.221Z,98526.75
2022-12-17T17:16:55.149Z,98531.88
2022-12-17T17:19:22.890Z,98535.47
2022-12-17T17:21:54.108Z,98540.69
2022-12-17T17:24:25.514Z,98542.53
2022-12-17T17:26:55.261Z,98541.81
2022-12-17T17:29:23.374Z,98539.38
2022-12-17T17:34:40.011Z,98541.06
2022-12-17T17:37:08.094Z,98548.25
2022-12-17T17:39:36.276Z,98548.31
2022-12-17T17:42:04.303Z,98553.47
2022-12-17T17:44:32.515Z,98555.34
2022-12-17T17:47:00.802Z,98549.41
2022-12-17T17:49:28.954Z,98551.38
2022-12-17T17:52:12.459Z,98565.50
2022-12-17T17:54:40.858Z,98563.94
2022-12-17T17:57:09.966Z,98555.13
2022-12-17T17:59:39.584Z,98560.38
2022-12-17T18:02:09.729Z,98562.88
2022-12-17T18:04:37.855Z,98561.91
2022-12-17T18:09:53.653Z,98558.34
2022-12-17T18:12:40.324Z,98552.25
2022-12-17T18:15:18.188Z,98551.38
2022-12-17T18:17:51.339Z,98554.81
2022-12-17T18:20:19.293Z,98559.97
2022-12-17T18:22:47.425Z,98572.09
2022-12-17T18:25:17.755Z,98557.31
2022-12-17T18:27:45.654Z,98553.00
2022-12-17T18:30:16.241Z,98552.94
2022-12-17T18:32:44.306Z,98559.00
2022-12-17T18:35:12.293Z,98557.31
2022-12-17T18:37:40.141Z,98565.94
2022-12-17T18:40:09.020Z,98574.56
2022-12-17T18:42:55.613Z,98578.06
2022-12-17T18:45:23.395Z,98587.75
2022-12-17T18:47:51.452Z,98591.28
2022-12-17T18:50:19.322Z,98585.28
2022-12-17T18:52:47.062Z,98581.06
2022-12-17T18:55:14.882Z,98584.84
2022-12-17T18:57:42.667Z,98587.47
2022-12-17T19:00:11.465Z,98594.59
2022-12-17T19:02:39.436Z,98601.72
2022-12-17T19:05:07.911Z,98600.19
2022-12-17T19:07:35.719Z,98593.31
2022-12-17T19:10:03.986Z,98588.13
2022-12-17T19:12:32.542Z,98591.66
2022-12-17T19:15:00.295Z,98591.84
2022-12-17T19:17:28.080Z,98597.97
2022-12-17T19:19:55.785Z,98606.88
2022-12-17T19:22:23.571Z,98613.00
2022-12-17T19:24:51.331Z,98618.31
2022-12-17T19:27:19.155Z,98622.69
2022-12-17T19:29:49.648Z,98624.50
2022-12-17T19:32:19.413Z,98632.81
2022-12-17T19:34:47.168Z,98626.91
2022-12-17T19:37:14.949Z,98629.44
2022-12-17T19:39:42.674Z,98624.25
2022-12-17T19:42:24.555Z,98630.25
2022-12-17T19:44:55.170Z,98620.84
2022-12-17T19:47:24.022Z,98628.56
2022-12-17T19:49:51.853Z,98629.34
2022-12-17T19:52:19.676Z,98635.25
2022-12-17T19:54:49.282Z,98626.41
2022-12-17T19:57:17.061Z,98621.16
2022-12-17T19:59:44.887Z,98620.13
2022-12-17T20:02:12.816Z,98620.88
2022-12-17T20:04:40.703Z,98623.44
2022-12-17T20:07:08.453Z,98628.66
2022-12-17T20:09:36.281Z,98626.84
2022-12-17T20:12:04.466Z,98622.28
2022-12-17T20:14:34.268Z,98624.56
2022-12-17T20:17:02.811Z,98618.22
2022-12-17T20:19:33.514Z,98622.28
2022-12-17T20:22:04.985Z,98636.69
2022-12-17T20:24:33.063Z,98630.31
2022-12-17T20:27:01.521Z,98622.31
2022-12-17T20:29:29.913Z,98620.25
2022-12-17T20:31:58.235Z,98615.78
2022-12-17T20:34:26.203Z,98608.63
2022-12-17T20:36:54.736Z,98610.25
2022-12-17T20:39:27.038Z,98603.09
2022-12-17T20:41:56.926Z,98594.38
2022-12-17T20:44:25.022Z,98596.88
2022-12-17T20:46:52.949Z,98610.78
2022-12-17T20:49:21.955Z,98612.34
2022-12-17T20:51:49.752Z,98618.25
2022-12-17T20:54:17.482Z,98619.09
2022-12-17T20:56:45.362Z,98622.63
2022-12-17T20:59:19.338Z,98619.25
2022-12-17T21:01:51.682Z,98607.19
2022-12-17T21:04:24.281Z,98610.78
2022-12-17T21:06:52.177Z,98610.78
2022-12-17T21:09:22.315Z,98614.25
2022-12-17T21:11:50.173Z,98621.97
2022-12-17T21:14:19.348Z,98621.19
2022-12-17T21:16:48.060Z,98613.41
2022-12-17T21:19:19.241Z,98615.91
2022-12-17T21:21:47.675Z,98607.19
2022-12-17T21:24:15.976Z,98613.34
2022-12-17T21:26:47.179Z,98607.19
2022-12-17T21:29:16.197Z,98617.78
2022-12-17T21:31:50.258Z,98619.59
2022-12-17T21:34:23.361Z,98627.38
2022-12-17T21:36:52.080Z,98635.31
2022-12-17T21:39:20.547Z,98624.94
2022-12-17T21:42:07.974Z,98627.72
2022-12-17T21:44:36.687Z,98622.81
2022-12-17T21:47:04.966Z,98625.53
2022-12-17T21:49:32.826Z,98630.94
2022-12-17T21:52:01.818Z,98642.28
2022-12-17T21:54:29.597Z,98649.31
2022-12-17T21:56:57.395Z,98648.66
2022-12-17T21:59:25.174Z,98639.16
2022-12-17T22:01:54.277Z,98637.53
2022-12-17T22:04:22.253Z,98633.09
2022-12-17T22:07:00.391Z,98635.72
2022-12-17T22:09:50.132Z,98640.19
2022-12-17T22:12:43.834Z,98652.50
2022-12-17T22:15:12.328Z,98656.19
2022-12-17T22:17:42.300Z,98644.81
2022-12-17T22:20:11.199Z,98647.41
2022-12-17T22:22:39.082Z,98642.28
2022-12-17T22:25:10.086Z,98649.34
2022-12-17T22:27:40.732Z,98654.56
2022-12-17T22:30:33.578Z,98652.91
2022-12-17T22:33:03.545Z,98651.16
2022-12-17T22:36:55.027Z,98641.03
2022-12-17T22:42:11.699Z,98653.75
2022-12-17T22:44:37.338Z,98647.66
2022-12-17T22:44:45.635Z,98648.59
2022-12-17T22:47:12.880Z,98646.84
2022-12-17T22:49:41.194Z,98633.56
2022-12-17T22:52:11.934Z,98639.44
2022-12-17T22:54:40.035Z,98637.59
2022-12-17T22:57:27.041Z,98638.38
2022-12-17T22:59:55.928Z,98635.94
2022-12-17T23:02:24.040Z,98647.13
2022-12-17T23:04:52.015Z,98635.72
2022-12-17T23:07:19.803Z,98630.31
2022-12-17T23:09:47.532Z,98637.19
2022-12-17T23:12:34.127Z,98644.88
2022-12-17T23:15:02.172Z,98645.75
2022-12-17T23:17:30.677Z,98652.56
2022-12-17T23:19:58.418Z,98660.34
2022-12-17T23:22:26.183Z,98660.19
2022-12-17T23:24:53.933Z,98660.16
2022-12-17T23:27:21.715Z,98662.66
2022-12-17T23:29:49.650Z,98661.78
2022-12-17T23:32:17.426Z,98659.16
2022-12-17T23:34:45.162Z,98663.50
2022-12-17T23:37:13.011Z,98661.78
2022-12-17T23:39:40.820Z,98649.50
2022-12-17T23:42:08.606Z,98655.59
2022-12-17T23:44:36.350Z,98643.50
2022-12-17T23:47:04.260Z,98638.34
2022-12-17T23:49:32.119Z,98641.88
2022-12-17T23:51:59.918Z,98640.91
2022-12-17T23:54:27.830Z,98642.66
2022-12-17T23:56:55.619Z,98657.47
2022-12-17T23:59:23.418Z,98652.31
